createdAt,value
2022-10-02T00:01:30.378Z,4.10
2022-10-02T00:03:58.497Z,3.38
2022-10-02T00:06:28.706Z,3.38
2022-10-02T00:09:03.591Z,4.65
2022-10-02T00:11:45.577Z,4.40
2022-10-02T00:14:15.538Z,4.80
2022-10-02T00:16:46.540Z,4.75
2022-10-02T00:19:16.598Z,4.07
2022-10-02T00:21:49.296Z,4.38
2022-10-02T00:24:20.674Z,3.83
2022-10-02T00:27:03.794Z,2.67
2022-10-02T00:29:45.344Z,3.45
2022-10-02T00:32:25.071Z,3.58
2022-10-02T00:35:22.459Z,4.07
2022-10-02T00:38:10.844Z,3.92
2022-10-02T00:41:16.858Z,3.83
2022-10-02T00:44:06.035Z,2.97
2022-10-02T00:46:45.441Z,3.35
2022-10-02T00:49:25.039Z,3.20
2022-10-02T00:52:25.577Z,3.10
2022-10-02T00:55:03.974Z,3.60
2022-10-02T00:58:12.122Z,4.00
2022-10-02T01:00:39.735Z,2.88
2022-10-02T01:03:29.502Z,3.28
2022-10-02T01:05:55.815Z,3.10
2022-10-02T01:08:22.480Z,3.25
2022-10-02T01:10:49.068Z,3.05
2022-10-02T01:13:15.938Z,2.95
2022-10-02T01:15:51.650Z,3.50
2022-10-02T01:18:18.437Z,3.65
2022-10-02T01:20:48.515Z,3.67
2022-10-02T01:23:24.675Z,3.72
2022-10-02T01:25:51.211Z,3.30
2022-10-02T01:28:18.145Z,3.95
2022-10-02T01:30:48.177Z,3.15
2022-10-02T01:33:16.931Z,4.10
2022-10-02T01:35:44.348Z,3.33
2022-10-02T01:38:16.989Z,4.13
2022-10-02T01:40:43.518Z,3.35
2022-10-02T01:43:14.536Z,3.55
2022-10-02T01:45:48.993Z,3.13
2022-10-02T01:48:40.945Z,3.30
2022-10-02T01:51:35.068Z,2.92
2022-10-02T01:54:26.168Z,3.15
2022-10-02T01:57:02.356Z,2.90
2022-10-02T01:59:47.560Z,3.33
2022-10-02T02:02:33.773Z,3.83
2022-10-02T02:05:09.868Z,3.17
2022-10-02T02:07:48.418Z,3.65
2022-10-02T02:10:24.185Z,2.90
2022-10-02T02:12:56.339Z,2.88
2022-10-02T02:15:31.162Z,2.88
2022-10-02T02:18:25.414Z,3.50
2022-10-02T02:20:55.608Z,3.30
2022-10-02T02:23:27.317Z,3.47
2022-10-02T02:25:59.661Z,4.13
2022-10-02T02:28:29.575Z,3.25
2022-10-02T02:30:58.192Z,3.15
2022-10-02T02:33:32.841Z,4.70
2022-10-02T02:36:06.662Z,4.03
2022-10-02T02:38:37.678Z,4.78
2022-10-02T02:41:18.182Z,5.40
2022-10-02T02:43:53.807Z,5.30
2022-10-02T02:46:32.857Z,5.38
2022-10-02T02:49:08.226Z,4.53
2022-10-02T02:51:41.098Z,4.88
2022-10-02T02:54:18.975Z,5.13
2022-10-02T02:56:48.281Z,4.97
2022-10-02T02:59:15.620Z,4.60
2022-10-02T03:01:42.567Z,3.33
2022-10-02T03:04:12.543Z,3.90
2022-10-02T03:06:44.315Z,3.60
2022-10-02T03:09:14.743Z,3.42
2022-10-02T03:11:50.365Z,3.40
2022-10-02T03:14:37.000Z,4.57
2022-10-02T03:17:28.676Z,3.72
2022-10-02T03:20:08.564Z,2.85
2022-10-02T03:22:44.095Z,4.03
2022-10-02T03:25:33.318Z,4.10
2022-10-02T03:28:08.594Z,3.88
2022-10-02T03:30:36.427Z,4.03
2022-10-02T03:33:04.972Z,4.50
2022-10-02T03:35:32.306Z,3.60
2022-10-02T03:38:03.504Z,4.72
2022-10-02T03:40:30.168Z,4.90
2022-10-02T03:42:57.114Z,4.50
2022-10-02T03:45:46.598Z,4.90
2022-10-02T03:48:14.338Z,4.82
2022-10-02T03:50:41.071Z,4.40
2022-10-02T03:53:14.852Z,4.30
2022-10-02T03:55:45.610Z,5.13
2022-10-02T04:00:58.747Z,5.22
2022-10-02T04:03:36.842Z,4.55
2022-10-02T04:06:12.853Z,5.10
2022-10-02T04:08:47.093Z,4.80
2022-10-02T04:11:25.334Z,5.05
2022-10-02T04:14:06.054Z,5.30
2022-10-02T04:16:40.794Z,4.78
2022-10-02T04:19:18.627Z,4.78
2022-10-02T04:22:06.524Z,4.15
2022-10-02T04:24:57.582Z,4.18
2022-10-02T04:27:56.740Z,4.78
2022-10-02T04:30:23.554Z,4.53
2022-10-02T04:32:50.551Z,4.72
2022-10-02T04:35:39.666Z,4.05
2022-10-02T04:38:47.413Z,4.72
2022-10-02T04:41:39.352Z,4.65
2022-10-02T04:44:36.719Z,5.05
2022-10-02T04:47:36.801Z,6.70
2022-10-02T04:50:30.538Z,7.20
2022-10-02T04:53:15.042Z,8.02
2022-10-02T04:56:03.115Z,8.30
2022-10-02T04:58:44.653Z,7.60
2022-10-02T05:01:45.999Z,7.35
2022-10-02T05:04:40.722Z,6.05
2022-10-02T05:07:37.878Z,5.53
2022-10-02T05:10:36.962Z,5.70
2022-10-02T05:13:22.523Z,6.05
2022-10-02T05:15:57.538Z,5.28
2022-10-02T05:18:54.201Z,5.93
2022-10-02T05:21:52.190Z,4.32
2022-10-02T05:24:38.704Z,5.30
2022-10-02T05:27:33.098Z,5.05
2022-10-02T05:30:19.248Z,5.15
2022-10-02T05:33:07.757Z,5.78
2022-10-02T05:36:19.100Z,5.40
2022-10-02T05:39:05.654Z,4.68
2022-10-02T05:41:41.239Z,4.07
2022-10-02T05:44:15.234Z,5.07
2022-10-02T05:47:12.375Z,5.28
2022-10-02T05:49:41.480Z,4.57
2022-10-02T05:52:10.694Z,5.07
2022-10-02T05:54:55.035Z,4.63
2022-10-02T05:57:32.645Z,4.03
2022-10-02T06:00:26.107Z,12.77
2022-10-02T06:03:06.402Z,8.77
2022-10-02T06:05:52.890Z,6.57
2022-10-02T06:08:26.950Z,5.13
2022-10-02T06:10:58.630Z,4.60
2022-10-02T06:13:32.228Z,4.90
2022-10-02T06:16:11.088Z,5.85
2022-10-02T06:18:42.917Z,5.90
2022-10-02T06:21:43.207Z,5.97
2022-10-02T06:24:20.481Z,5.57
2022-10-02T06:27:00.861Z,5.00
2022-10-02T06:29:48.385Z,5.60
2022-10-02T06:32:33.573Z,4.20
2022-10-02T06:35:00.995Z,4.40
2022-10-02T06:38:26.304Z,4.35
2022-10-02T06:41:00.793Z,3.75
2022-10-02T06:44:23.970Z,4.38
2022-10-02T06:47:14.769Z,5.07
2022-10-02T06:49:51.587Z,8.40
2022-10-02T06:52:27.158Z,7.85
2022-10-02T06:55:15.010Z,6.28
2022-10-02T06:58:07.589Z,6.90
2022-10-02T07:00:47.031Z,8.65
2022-10-02T07:03:27.545Z,8.60
2022-10-02T07:06:34.884Z,8.88
2022-10-02T07:09:33.531Z,7.95
2022-10-02T07:12:37.096Z,5.65
2022-10-02T07:15:03.447Z,4.78
2022-10-02T07:17:45.418Z,5.70
2022-10-02T07:20:14.668Z,5.57
2022-10-02T07:22:59.831Z,4.30
2022-10-02T07:26:04.317Z,3.75
2022-10-02T07:28:52.778Z,2.65
2022-10-02T07:31:44.076Z,4.05
2022-10-02T07:34:25.797Z,2.70
2022-10-02T07:37:14.253Z,3.30
2022-10-02T07:40:06.490Z,4.30
2022-10-02T07:43:04.100Z,5.18
2022-10-02T07:46:18.574Z,5.68
2022-10-02T07:49:06.511Z,6.43
2022-10-02T07:52:17.903Z,8.73
2022-10-02T07:54:57.085Z,10.15
2022-10-02T07:57:32.825Z,9.55
2022-10-02T08:00:06.211Z,14.10
2022-10-02T08:02:39.446Z,11.93
2022-10-02T08:05:17.309Z,8.10
2022-10-02T08:07:46.878Z,6.40
2022-10-02T08:10:15.103Z,8.38
2022-10-02T08:12:50.109Z,7.78
2022-10-02T08:15:20.664Z,5.90
2022-10-02T08:17:58.712Z,6.72
2022-10-02T08:20:38.015Z,5.35
2022-10-02T08:23:25.257Z,4.40
2022-10-02T08:26:04.827Z,4.43
2022-10-02T08:28:56.793Z,4.30
2022-10-02T08:31:23.221Z,4.15
2022-10-02T08:33:49.901Z,4.53
2022-10-02T08:36:44.045Z,3.80
2022-10-02T08:39:34.638Z,4.05
2022-10-02T08:42:18.843Z,4.25
2022-10-02T08:45:04.420Z,5.60
2022-10-02T08:47:54.045Z,4.65
2022-10-02T08:50:27.330Z,4.97
2022-10-02T08:53:26.028Z,4.60
2022-10-02T08:56:20.488Z,4.25
2022-10-02T08:59:07.329Z,4.50
2022-10-02T09:01:48.739Z,4.28
2022-10-02T09:04:37.176Z,5.18
2022-10-02T09:07:29.239Z,4.40
2022-10-02T09:10:13.615Z,4.38
2022-10-02T09:13:04.969Z,4.20
2022-10-02T09:15:53.210Z,3.45
2022-10-02T09:18:54.897Z,5.40
2022-10-02T09:21:48.572Z,3.85
2022-10-02T09:24:54.198Z,3.47
2022-10-02T09:27:41.762Z,3.60
2022-10-02T09:30:20.004Z,3.55
2022-10-02T09:33:17.850Z,3.90
2022-10-02T09:35:58.644Z,3.67
2022-10-02T09:38:54.273Z,3.55
2022-10-02T09:41:58.893Z,3.65
2022-10-02T09:44:43.857Z,3.05
2022-10-02T09:47:23.011Z,3.88
2022-10-02T09:49:58.254Z,3.85
2022-10-02T09:53:03.338Z,3.65
2022-10-02T09:55:49.878Z,2.90
2022-10-02T09:58:38.377Z,3.03
2022-10-02T10:01:25.987Z,3.45
2022-10-02T10:04:04.298Z,3.35
2022-10-02T10:07:19.049Z,3.17
2022-10-02T10:10:10.166Z,3.33
2022-10-02T10:12:57.480Z,3.42
2022-10-02T10:15:57.142Z,2.78
2022-10-02T10:18:34.538Z,3.97
2022-10-02T10:21:34.677Z,3.10
2022-10-02T10:24:28.928Z,2.50
2022-10-02T10:27:00.305Z,2.60
2022-10-02T10:29:52.050Z,2.53
2022-10-02T10:32:46.159Z,2.42
2022-10-02T10:35:22.424Z,3.05
2022-10-02T10:38:19.402Z,2.20
2022-10-02T10:40:53.462Z,2.47
2022-10-02T10:43:38.454Z,2.33
2022-10-02T10:46:33.692Z,2.17
2022-10-02T10:49:37.938Z,1.92
2022-10-02T10:52:48.968Z,1.38
2022-10-02T10:55:23.604Z,1.55
2022-10-02T10:58:16.096Z,1.83
2022-10-02T11:00:58.356Z,1.60
2022-10-02T11:04:01.093Z,1.50
2022-10-02T11:06:35.813Z,1.33
2022-10-02T11:09:33.517Z,1.33
2022-10-02T11:12:11.858Z,1.63
2022-10-02T11:14:54.154Z,1.80
2022-10-02T11:17:35.638Z,1.40
2022-10-02T11:20:05.153Z,1.13
2022-10-02T11:22:56.270Z,1.63
2022-10-02T11:26:00.924Z,1.63
2022-10-02T11:28:44.184Z,1.05
2022-10-02T11:31:29.971Z,1.25
2022-10-02T11:34:35.354Z,1.30
2022-10-02T11:37:10.662Z,1.30
2022-10-02T11:40:09.075Z,1.17
2022-10-02T11:42:56.538Z,1.33
2022-10-02T11:45:48.126Z,0.93
2022-10-02T11:48:52.049Z,0.70
2022-10-02T11:51:27.478Z,0.63
2022-10-02T11:54:09.185Z,0.60
2022-10-02T11:56:59.849Z,0.45
2022-10-02T11:59:57.235Z,0.80
2022-10-02T12:02:33.253Z,0.40
2022-10-02T12:05:31.584Z,0.40
2022-10-02T12:08:03.810Z,0.45
2022-10-02T12:10:42.951Z,0.35
2022-10-02T12:13:23.281Z,0.30
2022-10-02T12:16:05.957Z,0.68
2022-10-02T12:18:51.636Z,0.60
2022-10-02T12:21:36.511Z,0.82
2022-10-02T12:24:29.602Z,0.90
2022-10-02T12:27:31.573Z,0.60
2022-10-02T12:30:07.498Z,0.60
2022-10-02T12:32:36.704Z,0.70
2022-10-02T12:35:35.429Z,0.60
2022-10-02T12:38:12.267Z,0.90
2022-10-02T12:41:00.446Z,0.88
2022-10-02T12:43:41.957Z,0.93
2022-10-02T12:46:45.511Z,0.85
2022-10-02T12:49:43.283Z,0.95
2022-10-02T12:52:31.025Z,0.80
2022-10-02T12:55:34.974Z,1.27
2022-10-02T12:58:19.696Z,0.80
2022-10-02T13:01:13.462Z,1.00
2022-10-02T13:04:17.173Z,0.90
2022-10-02T13:07:06.959Z,1.25
2022-10-02T13:09:33.271Z,1.33
2022-10-02T13:12:22.618Z,1.15
2022-10-02T13:15:07.319Z,1.55
2022-10-02T13:17:49.566Z,1.10
2022-10-02T13:20:38.699Z,1.10
2022-10-02T13:23:29.814Z,1.55
2022-10-02T13:26:09.359Z,1.00
2022-10-02T13:29:18.299Z,0.90
2022-10-02T13:32:14.515Z,0.98
2022-10-02T13:35:05.928Z,1.08
2022-10-02T13:37:38.311Z,1.15
2022-10-02T13:40:24.129Z,0.70
2022-10-02T13:43:18.003Z,0.80
2022-10-02T13:46:02.538Z,0.90
2022-10-02T13:48:44.095Z,1.05
2022-10-02T13:51:17.083Z,0.70
2022-10-02T13:54:05.604Z,0.65
2022-10-02T13:56:56.178Z,0.50
2022-10-02T13:59:28.733Z,0.50
2022-10-02T14:02:23.696Z,0.50
2022-10-02T14:04:58.419Z,0.50
2022-10-02T14:07:44.384Z,0.50
2022-10-02T14:10:36.487Z,0.43
2022-10-02T14:13:16.248Z,0.40
2022-10-02T14:15:58.397Z,0.40
2022-10-02T14:18:36.864Z,0.73
2022-10-02T14:21:23.835Z,0.75
2022-10-02T14:24:01.457Z,0.73
2022-10-02T14:26:49.038Z,0.60
2022-10-02T14:29:35.613Z,0.38
2022-10-02T14:32:20.773Z,0.80
2022-10-02T14:34:52.997Z,0.30
2022-10-02T14:37:54.614Z,1.10
2022-10-02T14:40:21.397Z,0.70
2022-10-02T14:42:53.719Z,0.70
2022-10-02T14:45:47.372Z,0.52
2022-10-02T14:48:27.892Z,0.40
2022-10-02T14:51:06.520Z,0.60
2022-10-02T14:54:01.566Z,0.38
2022-10-02T14:56:47.603Z,0.55
2022-10-02T14:59:16.931Z,0.50
2022-10-02T15:01:56.397Z,0.50
2022-10-02T15:04:53.357Z,0.70
2022-10-02T15:07:22.652Z,0.60
2022-10-02T15:09:54.600Z,1.17
2022-10-02T15:12:25.800Z,0.90
2022-10-02T15:15:01.243Z,0.70
2022-10-02T15:18:05.110Z,0.70
2022-10-02T15:21:15.656Z,0.70
2022-10-02T15:23:42.129Z,0.85
2022-10-02T15:26:17.045Z,1.20
2022-10-02T15:29:05.499Z,1.50
2022-10-02T15:31:39.577Z,1.23
2022-10-02T15:34:35.846Z,1.30
2022-10-02T15:37:17.050Z,1.20
2022-10-02T15:40:02.689Z,1.20
2022-10-02T15:42:49.729Z,1.25
2022-10-02T15:45:32.043Z,1.60
2022-10-02T15:48:17.056Z,1.40
2022-10-02T15:50:57.004Z,1.40
2022-10-02T15:53:48.393Z,1.13
2022-10-02T15:56:42.990Z,1.52
2022-10-02T15:59:59.706Z,1.52
2022-10-02T16:02:32.026Z,1.70
2022-10-02T16:05:19.944Z,1.58
2022-10-02T16:08:04.013Z,1.25
2022-10-02T16:10:48.889Z,0.90
2022-10-02T16:13:27.432Z,1.35
2022-10-02T16:16:05.244Z,1.17
2022-10-02T16:18:41.048Z,1.73
2022-10-02T16:21:26.464Z,2.78
2022-10-02T16:24:01.693Z,2.45
2022-10-02T16:27:17.016Z,2.40
2022-10-02T16:30:09.917Z,2.08
2022-10-02T16:32:39.638Z,2.08
2022-10-02T16:35:18.172Z,2.25
2022-10-02T16:37:45.443Z,2.50
2022-10-02T16:40:41.528Z,2.50
2022-10-02T16:43:45.431Z,2.70
2022-10-02T16:46:47.839Z,2.83
2022-10-02T16:49:33.091Z,2.83
2022-10-02T16:52:17.335Z,3.03
2022-10-02T16:54:58.713Z,3.53
2022-10-02T16:57:50.100Z,3.55
2022-10-02T17:00:24.298Z,3.97
2022-10-02T17:03:19.562Z,3.83
2022-10-02T17:06:11.488Z,3.20
2022-10-02T17:08:52.499Z,4.05
2022-10-02T17:11:23.668Z,4.85
2022-10-02T17:14:11.747Z,4.68
2022-10-02T17:16:50.494Z,5.68
2022-10-02T17:19:27.481Z,6.10
2022-10-02T17:22:27.102Z,6.65
2022-10-02T17:25:35.980Z,6.87
2022-10-02T17:28:09.865Z,5.18
2022-10-02T17:31:00.528Z,5.35
2022-10-02T17:33:28.737Z,6.30
2022-10-02T17:36:01.259Z,5.93
2022-10-02T17:38:44.752Z,4.88
2022-10-02T17:41:42.662Z,6.13
2022-10-02T17:44:52.307Z,4.93
2022-10-02T17:47:34.378Z,6.35
2022-10-02T17:50:00.721Z,8.25
2022-10-02T17:52:50.019Z,15.95
2022-10-02T17:55:54.531Z,11.10
2022-10-02T17:58:51.852Z,9.27
2022-10-02T18:01:24.188Z,7.15
2022-10-02T18:04:09.435Z,6.20
2022-10-02T18:06:46.215Z,6.13
2022-10-02T18:09:24.925Z,4.80
2022-10-02T18:12:11.426Z,5.72
2022-10-02T18:15:15.874Z,5.63
2022-10-02T18:18:10.031Z,6.78
2022-10-02T18:21:05.105Z,6.55
2022-10-02T18:23:43.095Z,6.40
2022-10-02T18:26:18.888Z,6.68
2022-10-02T18:29:16.515Z,6.28
2022-10-02T18:31:56.313Z,6.63
2022-10-02T18:34:29.263Z,5.13
2022-10-02T18:37:16.912Z,3.85
2022-10-02T18:40:10.990Z,4.72
2022-10-02T18:42:47.353Z,6.20
2022-10-02T18:45:39.650Z,5.70
2022-10-02T18:48:09.205Z,5.47
2022-10-02T18:50:48.711Z,7.53
2022-10-02T18:53:37.329Z,7.20
2022-10-02T18:56:07.846Z,6.90
2022-10-02T18:58:42.996Z,5.63
2022-10-02T19:01:25.422Z,10.07
2022-10-02T19:04:03.715Z,12.27
2022-10-02T19:06:45.482Z,14.50
2022-10-02T19:09:25.819Z,14.70
2022-10-02T19:11:56.892Z,12.50
2022-10-02T19:14:38.670Z,12.43
2022-10-02T19:17:10.931Z,10.23
2022-10-02T19:19:38.084Z,9.02
2022-10-02T19:22:16.197Z,8.85
2022-10-02T19:24:44.522Z,7.40
2022-10-02T19:27:19.965Z,6.57
2022-10-02T19:29:54.829Z,6.53
2022-10-02T19:32:34.034Z,5.90
2022-10-02T19:35:04.901Z,5.88
2022-10-02T19:40:02.115Z,6.60
2022-10-02T19:42:32.787Z,6.15
2022-10-02T19:45:03.311Z,5.65
2022-10-02T19:47:41.570Z,6.68
2022-10-02T19:50:38.392Z,5.47
2022-10-02T19:53:15.634Z,5.32
2022-10-02T19:55:43.892Z,5.00
2022-10-02T19:58:20.054Z,4.85
2022-10-02T20:00:47.546Z,4.90
2022-10-02T20:03:20.735Z,4.78
2022-10-02T20:05:52.963Z,6.40
2022-10-02T20:08:25.265Z,6.68
2022-10-02T20:11:06.171Z,5.63
2022-10-02T20:16:25.289Z,6.72
2022-10-02T20:18:52.324Z,6.53
2022-10-02T20:21:40.278Z,6.72
2022-10-02T20:24:16.714Z,5.53
2022-10-02T20:26:45.529Z,6.90
2022-10-02T20:29:18.658Z,8.02
2022-10-02T20:31:48.516Z,7.95
2022-10-02T20:34:31.631Z,7.00
2022-10-02T20:37:06.099Z,8.73
2022-10-02T20:39:45.046Z,9.50
2022-10-02T20:42:17.373Z,13.30
2022-10-02T20:44:43.678Z,11.65
2022-10-02T20:47:22.276Z,10.48
2022-10-02T20:50:09.343Z,9.93
2022-10-02T20:52:57.850Z,9.60
2022-10-02T20:55:36.196Z,9.30
2022-10-02T20:58:24.285Z,8.80
2022-10-02T21:01:14.469Z,7.88
2022-10-02T21:06:56.168Z,7.38
2022-10-02T21:10:16.666Z,7.80
2022-10-02T21:13:01.629Z,7.38
2022-10-02T21:15:44.145Z,6.47
2022-10-02T21:18:34.679Z,5.57
2022-10-02T21:21:24.756Z,4.78
2022-10-02T21:24:00.677Z,4.25
2022-10-02T21:26:56.226Z,4.40
2022-10-02T21:29:28.774Z,4.45
2022-10-02T21:32:12.913Z,3.90
2022-10-02T21:34:48.558Z,4.10
2022-10-02T21:37:30.918Z,3.75
2022-10-02T21:40:32.980Z,4.57
2022-10-02T21:43:25.890Z,3.25
2022-10-02T21:46:27.882Z,5.70
2022-10-02T21:49:16.066Z,4.97
2022-10-02T21:52:14.336Z,4.50
2022-10-02T21:54:58.695Z,4.00
2022-10-02T21:57:49.412Z,3.95
2022-10-02T22:00:22.100Z,3.95
2022-10-02T22:03:27.229Z,3.95
2022-10-02T22:06:27.862Z,2.55
2022-10-02T22:09:15.796Z,3.30
2022-10-02T22:11:58.549Z,2.72
2022-10-02T22:14:32.665Z,3.17
2022-10-02T22:17:15.769Z,3.30
2022-10-02T22:19:48.837Z,5.60
2022-10-02T22:23:00.433Z,4.43
2022-10-02T22:25:43.634Z,5.57
2022-10-02T22:28:23.061Z,5.75
2022-10-02T22:30:55.523Z,6.53
2022-10-02T22:33:37.785Z,5.45
2022-10-02T22:36:43.173Z,4.82
2022-10-02T22:39:24.827Z,5.78
2022-10-02T22:42:13.973Z,5.13
2022-10-02T22:44:52.796Z,4.72
2022-10-02T22:47:37.693Z,4.28
2022-10-02T22:50:13.409Z,4.15
2022-10-02T22:53:00.416Z,4.80
2022-10-02T22:55:32.760Z,6.22
2022-10-02T22:58:01.552Z,6.45
2022-10-02T23:00:36.416Z,5.13
2022-10-02T23:03:15.258Z,8.27
2022-10-02T23:06:20.183Z,8.93
2022-10-02T23:09:08.004Z,7.90
2022-10-02T23:11:43.747Z,7.72
2022-10-02T23:14:23.079Z,6.70
2022-10-02T23:17:01.894Z,7.43
2022-10-02T23:19:42.203Z,6.88
2022-10-02T23:22:19.874Z,7.13
2022-10-02T23:25:12.685Z,8.20
2022-10-02T23:27:51.979Z,8.77
2022-10-02T23:30:20.431Z,12.20
2022-10-02T23:33:06.923Z,10.30
2022-10-02T23:35:46.499Z,10.65
2022-10-02T23:38:20.845Z,9.60
2022-10-02T23:41:08.072Z,12.32
2022-10-02T23:43:42.445Z,12.15
2022-10-02T23:46:17.218Z,25.65
2022-10-02T23:48:45.040Z,26.77
2022-10-02T23:51:23.743Z,24.00
2022-10-02T23:53:58.778Z,26.08
2022-10-02T23:56:31.049Z,26.77
2022-10-02T23:59:21.065Z,24.58
